sensor_id;sensor_type;location;lat;lon;timestamp;pressure;altitude;pressure_sealevel;temperature;humidity
76998;BME280;65930;48.874;10.734;2023-05-07T00:01:30;95991.19;;;13.65;68.72
76998;BME280;65930;48.874;10.734;2023-05-07T00:03:58;95992.97;;;13.52;68.80
76998;BME280;65930;48.874;10.734;2023-05-07T00:06:27;95985.28;;;13.59;68.57
76998;BME280;65930;48.874;10.734;2023-05-07T00:08:56;95988.75;;;13.67;68.32
76998;BME280;65930;48.874;10.734;2023-05-07T00:11:24;95987.84;;;13.74;67.45
76998;BME280;65930;48.874;10.734;2023-05-07T00:13:53;95986.34;;;13.69;68.08
76998;BME280;65930;48.874;10.734;2023-05-07T00:16:21;95990.94;;;13.79;68.48
76998;BME280;65930;48.874;10.734;2023-05-07T00:18:49;95993.09;;;13.68;68.59
76998;BME280;65930;48.874;10.734;2023-05-07T00:21:20;95997.94;;;13.64;68.79
76998;BME280;65930;48.874;10.734;2023-05-07T00:23:58;95987.34;;;13.55;69.35
76998;BME280;65930;48.874;10.734;2023-05-07T00:26:29;95985.84;;;13.51;69.83
76998;BME280;65930;48.874;10.734;2023-05-07T00:28:56;95987.41;;;13.52;69.41
76998;BME280;65930;48.874;10.734;2023-05-07T00:31:24;95977.09;;;13.49;69.52
76998;BME280;65930;48.874;10.734;2023-05-07T00:33:52;95990.53;;;13.54;70.10
76998;BME280;65930;48.874;10.734;2023-05-07T00:36:20;95994.19;;;13.51;69.53
76998;BME280;65930;48.874;10.734;2023-05-07T00:38:48;95986.22;;;13.53;71.29
76998;BME280;65930;48.874;10.734;2023-05-07T00:41:17;95987.41;;;13.52;70.54
76998;BME280;65930;48.874;10.734;2023-05-07T00:43:45;95991.41;;;13.51;71.83
76998;BME280;65930;48.874;10.734;2023-05-07T00:46:13;95995.31;;;13.53;71.00
76998;BME280;65930;48.874;10.734;2023-05-07T00:48:42;95990.34;;;13.41;71.31
76998;BME280;65930;48.874;10.734;2023-05-07T00:51:11;95984.59;;;13.29;71.93
76998;BME280;65930;48.874;10.734;2023-05-07T00:53:39;95980.44;;;13.13;72.88
76998;BME280;65930;48.874;10.734;2023-05-07T00:56:08;95983.16;;;13.17;72.42
76998;BME280;65930;48.874;10.734;2023-05-07T00:58:37;95978.22;;;13.28;72.73
76998;BME280;65930;48.874;10.734;2023-05-07T01:01:08;95979.75;;;13.33;73.38
76998;BME280;65930;48.874;10.734;2023-05-07T01:03:36;95983.00;;;13.28;72.36
76998;BME280;65930;48.874;10.734;2023-05-07T01:06:09;95980.31;;;13.20;72.86
76998;BME280;65930;48.874;10.734;2023-05-07T01:08:41;95986.19;;;13.26;72.58
76998;BME280;65930;48.874;10.734;2023-05-07T01:11:11;95983.22;;;13.10;72.27
76998;BME280;65930;48.874;10.734;2023-05-07T01:13:41;95984.69;;;12.91;73.33
76998;BME280;65930;48.874;10.734;2023-05-07T01:16:10;95989.72;;;13.00;74.18
76998;BME280;65930;48.874;10.734;2023-05-07T01:18:37;95990.47;;;13.04;73.88
76998;BME280;65930;48.874;10.734;2023-05-07T01:21:10;95993.28;;;13.00;74.09
76998;BME280;65930;48.874;10.734;2023-05-07T01:23:41;95992.22;;;12.91;73.80
76998;BME280;65930;48.874;10.734;2023-05-07T01:26:09;95995.88;;;12.84;73.98
76998;BME280;65930;48.874;10.734;2023-05-07T01:28:37;95988.03;;;12.75;73.87
76998;BME280;65930;48.874;10.734;2023-05-07T01:31:06;95978.19;;;12.71;74.79
76998;BME280;65930;48.874;10.734;2023-05-07T01:33:38;95985.22;;;12.79;73.19
76998;BME280;65930;48.874;10.734;2023-05-07T01:36:08;95970.13;;;12.80;71.85
76998;BME280;65930;48.874;10.734;2023-05-07T01:38:40;95986.19;;;12.96;70.78
76998;BME280;65930;48.874;10.734;2023-05-07T01:41:10;95970.66;;;12.98;70.42
76998;BME280;65930;48.874;10.734;2023-05-07T01:43:40;95970.66;;;12.98;70.00
76998;BME280;65930;48.874;10.734;2023-05-07T01:46:10;95973.50;;;12.95;70.28
76998;BME280;65930;48.874;10.734;2023-05-07T01:48:39;95978.19;;;13.01;69.76
76998;BME280;65930;48.874;10.734;2023-05-07T01:51:08;95970.25;;;13.00;70.04
76998;BME280;65930;48.874;10.734;2023-05-07T01:53:36;95968.00;;;12.91;70.19
76998;BME280;65930;48.874;10.734;2023-05-07T01:56:12;95971.56;;;12.92;70.57
76998;BME280;65930;48.874;10.734;2023-05-07T01:58:39;95979.84;;;12.95;70.12
76998;BME280;65930;48.874;10.734;2023-05-07T02:01:10;95977.47;;;12.94;70.09
76998;BME280;65930;48.874;10.734;2023-05-07T02:03:38;95976.47;;;12.80;70.14
76998;BME280;65930;48.874;10.734;2023-05-07T02:06:06;95972.44;;;12.85;70.80
76998;BME280;65930;48.874;10.734;2023-05-07T02:08:34;95972.91;;;12.80;70.63
76998;BME280;65930;48.874;10.734;2023-05-07T02:11:03;95972.53;;;12.78;70.79
76998;BME280;65930;48.874;10.734;2023-05-07T02:13:33;95963.72;;;12.83;70.45
76998;BME280;65930;48.874;10.734;2023-05-07T02:16:01;95955.47;;;12.76;70.57
76998;BME280;65930;48.874;10.734;2023-05-07T02:18:32;95952.66;;;12.79;70.60
76998;BME280;65930;48.874;10.734;2023-05-07T02:21:00;95959.91;;;12.70;70.80
76998;BME280;65930;48.874;10.734;2023-05-07T02:23:28;95961.97;;;12.66;71.38
76998;BME280;65930;48.874;10.734;2023-05-07T02:26:01;95962.34;;;12.68;71.65
76998;BME280;65930;48.874;10.734;2023-05-07T02:28:33;95968.72;;;12.65;71.58
76998;BME280;65930;48.874;10.734;2023-05-07T02:31:02;95959.56;;;12.68;71.88
76998;BME280;65930;48.874;10.734;2023-05-07T02:33:30;95964.75;;;12.66;71.46
76998;BME280;65930;48.874;10.734;2023-05-07T02:36:05;95965.47;;;12.70;71.66
76998;BME280;65930;48.874;10.734;2023-05-07T02:38:33;95965.06;;;12.71;71.73
76998;BME280;65930;48.874;10.734;2023-05-07T02:41:01;95967.09;;;12.67;72.06
76998;BME280;65930;48.874;10.734;2023-05-07T02:43:29;95953.75;;;12.55;72.30
76998;BME280;65930;48.874;10.734;2023-05-07T02:46:02;95945.84;;;12.54;72.10
76998;BME280;65930;48.874;10.734;2023-05-07T02:48:31;95950.66;;;12.50;72.34
76998;BME280;65930;48.874;10.734;2023-05-07T02:50:59;95953.78;;;12.52;72.21
76998;BME280;65930;48.874;10.734;2023-05-07T02:53:27;95957.41;;;12.49;72.35
76998;BME280;65930;48.874;10.734;2023-05-07T02:55:57;95953.50;;;12.43;71.97
76998;BME280;65930;48.874;10.734;2023-05-07T02:58:25;95952.22;;;12.51;72.16
76998;BME280;65930;48.874;10.734;2023-05-07T03:00:54;95953.50;;;12.43;72.40
76998;BME280;65930;48.874;10.734;2023-05-07T03:03:23;95952.38;;;12.36;72.54
76998;BME280;65930;48.874;10.734;2023-05-07T03:05:51;95953.22;;;12.33;72.88
76998;BME280;65930;48.874;10.734;2023-05-07T03:08:19;95958.78;;;12.33;73.10
76998;BME280;65930;48.874;10.734;2023-05-07T03:10:47;95954.84;;;12.31;73.19
76998;BME280;65930;48.874;10.734;2023-05-07T03:13:18;95963.53;;;12.33;73.20
76998;BME280;65930;48.874;10.734;2023-05-07T03:15:46;95962.69;;;12.40;73.03
76998;BME280;65930;48.874;10.734;2023-05-07T03:18:14;95965.50;;;12.36;73.59
76998;BME280;65930;48.874;10.734;2023-05-07T03:20:43;95965.00;;;12.45;73.11
76998;BME280;65930;48.874;10.734;2023-05-07T03:23:11;95978.00;;;12.55;72.79
76998;BME280;65930;48.874;10.734;2023-05-07T03:25:39;95975.63;;;12.53;72.01
76998;BME280;65930;48.874;10.734;2023-05-07T03:28:07;95978.91;;;12.41;72.61
76998;BME280;65930;48.874;10.734;2023-05-07T03:30:34;95986.69;;;12.19;73.63
76998;BME280;65930;48.874;10.734;2023-05-07T03:33:02;95988.41;;;12.06;74.52
76998;BME280;65930;48.874;10.734;2023-05-07T03:35:30;95988.03;;;12.08;74.64
76998;BME280;65930;48.874;10.734;2023-05-07T03:38:00;95982.88;;;12.06;74.73
76998;BME280;65930;48.874;10.734;2023-05-07T03:40:27;95982.94;;;11.99;74.78
76998;BME280;65930;48.874;10.734;2023-05-07T03:42:56;95985.88;;;11.81;75.43
76998;BME280;65930;48.874;10.734;2023-05-07T03:45:23;95981.19;;;11.75;75.88
76998;BME280;65930;48.874;10.734;2023-05-07T03:47:51;95981.59;;;11.73;75.96
76998;BME280;65930;48.874;10.734;2023-05-07T03:50:19;95977.00;;;11.49;75.99
76998;BME280;65930;48.874;10.734;2023-05-07T03:52:47;95978.81;;;11.70;75.77
76998;BME280;65930;48.874;10.734;2023-05-07T03:55:17;95985.16;;;11.67;75.62
76998;BME280;65930;48.874;10.734;2023-05-07T03:57:44;95988.28;;;11.76;75.47
76998;BME280;65930;48.874;10.734;2023-05-07T04:00:13;95985.50;;;11.76;75.31
76998;BME280;65930;48.874;10.734;2023-05-07T04:02:41;95993.41;;;11.81;75.24
76998;BME280;65930;48.874;10.734;2023-05-07T04:05:09;96002.13;;;11.83;75.15
76998;BME280;65930;48.874;10.734;2023-05-07T04:07:38;95991.09;;;11.69;75.87
76998;BME280;65930;48.874;10.734;2023-05-07T04:10:06;95989.59;;;11.61;76.50
76998;BME280;65930;48.874;10.734;2023-05-07T04:12:35;95991.19;;;11.58;76.68
76998;BME280;65930;48.874;10.734;2023-05-07T04:15:04;95990.84;;;11.53;76.36
76998;BME280;65930;48.874;10.734;2023-05-07T04:17:32;95991.31;;;11.40;77.03
76998;BME280;65930;48.874;10.734;2023-05-07T04:20:00;95980.22;;;11.40;76.99
76998;BME280;65930;48.874;10.734;2023-05-07T04:22:28;95974.66;;;11.44;76.81
76998;BME280;65930;48.874;10.734;2023-05-07T04:24:56;95984.09;;;11.54;76.77
76998;BME280;65930;48.874;10.734;2023-05-07T04:27:24;95977.75;;;11.57;76.90
76998;BME280;65930;48.874;10.734;2023-05-07T04:29:53;95972.19;;;11.57;76.88
76998;BME280;65930;48.874;10.734;2023-05-07T04:32:22;95971.34;;;11.63;76.77
76998;BME280;65930;48.874;10.734;2023-05-07T04:34:51;95967.28;;;11.71;77.14
76998;BME280;65930;48.874;10.734;2023-05-07T04:37:19;95973.66;;;11.75;76.23
76998;BME280;65930;48.874;10.734;2023-05-07T04:39:47;95979.06;;;11.89;75.78
76998;BME280;65930;48.874;10.734;2023-05-07T04:42:15;95985.25;;;12.04;75.69
76998;BME280;65930;48.874;10.734;2023-05-07T04:44:44;95980.47;;;12.08;76.24
76998;BME280;65930;48.874;10.734;2023-05-07T04:47:14;95983.53;;;12.21;75.50
76998;BME280;65930;48.874;10.734;2023-05-07T04:49:41;95977.56;;;12.22;75.24
76998;BME280;65930;48.874;10.734;2023-05-07T04:52:09;95965.97;;;12.27;75.17
76998;BME280;65930;48.874;10.734;2023-05-07T04:54:37;95974.59;;;12.36;75.47
76998;BME280;65930;48.874;10.734;2023-05-07T04:57:05;95980.94;;;12.41;74.75
76998;BME280;65930;48.874;10.734;2023-05-07T04:59:33;95985.66;;;12.44;74.70
76998;BME280;65930;48.874;10.734;2023-05-07T05:02:01;95978.44;;;12.50;74.81
76998;BME280;65930;48.874;10.734;2023-05-07T05:04:32;95979.97;;;12.54;74.86
76998;BME280;65930;48.874;10.734;2023-05-07T05:06:59;95986.19;;;12.65;74.37
76998;BME280;65930;48.874;10.734;2023-05-07T05:09:27;95989.78;;;12.62;74.21
76998;BME280;65930;48.874;10.734;2023-05-07T05:11:55;96002.03;;;12.68;73.61
76998;BME280;65930;48.874;10.734;2023-05-07T05:14:23;95990.41;;;12.77;74.07
76998;BME280;65930;48.874;10.734;2023-05-07T05:16:51;95997.44;;;12.85;74.32
76998;BME280;65930;48.874;10.734;2023-05-07T05:19:19;95994.59;;;12.92;74.02
76998;BME280;65930;48.874;10.734;2023-05-07T05:21:48;96002.31;;;13.08;73.34
76998;BME280;65930;48.874;10.734;2023-05-07T05:24:16;95998.97;;;13.23;72.90
76998;BME280;65930;48.874;10.734;2023-05-07T05:26:44;95995.13;;;13.41;72.32
76998;BME280;65930;48.874;10.734;2023-05-07T05:29:12;95996.59;;;13.49;72.10
76998;BME280;65930;48.874;10.734;2023-05-07T05:31:40;95995.28;;;13.57;71.57
76998;BME280;65930;48.874;10.734;2023-05-07T05:34:08;96005.97;;;13.85;71.54
76998;BME280;65930;48.874;10.734;2023-05-07T05:36:36;96019.03;;;14.11;69.69
76998;BME280;65930;48.874;10.734;2023-05-07T05:39:05;96030.66;;;14.30;69.57
76998;BME280;65930;48.874;10.734;2023-05-07T05:41:33;96022.00;;;14.01;70.09
76998;BME280;65930;48.874;10.734;2023-05-07T05:44:01;96024.22;;;13.86;71.13
76998;BME280;65930;48.874;10.734;2023-05-07T05:46:29;96018.06;;;13.75;71.57
76998;BME280;65930;48.874;10.734;2023-05-07T05:48:59;96019.75;;;13.92;71.51
76998;BME280;65930;48.874;10.734;2023-05-07T05:51:29;96020.41;;;14.23;69.75
76998;BME280;65930;48.874;10.734;2023-05-07T05:53:57;96020.69;;;14.32;70.22
76998;BME280;65930;48.874;10.734;2023-05-07T05:56:26;96001.13;;;14.36;69.60
76998;BME280;65930;48.874;10.734;2023-05-07T05:58:54;96014.66;;;14.34;69.44
76998;BME280;65930;48.874;10.734;2023-05-07T06:01:25;96013.59;;;14.51;68.94
76998;BME280;65930;48.874;10.734;2023-05-07T06:03:53;96027.59;;;14.67;69.66
76998;BME280;65930;48.874;10.734;2023-05-07T06:06:21;96024.44;;;14.65;68.85
76998;BME280;65930;48.874;10.734;2023-05-07T06:08:53;96032.31;;;14.50;69.65
76998;BME280;65930;48.874;10.734;2023-05-07T06:11:21;96036.75;;;14.68;68.66
76998;BME280;65930;48.874;10.734;2023-05-07T06:13:50;96049.28;;;14.60;69.47
76998;BME280;65930;48.874;10.734;2023-05-07T06:16:18;96044.94;;;14.78;68.89
76998;BME280;65930;48.874;10.734;2023-05-07T06:18:46;96040.19;;;14.95;68.03
76998;BME280;65930;48.874;10.734;2023-05-07T06:21:14;96040.50;;;15.01;69.00
76998;BME280;65930;48.874;10.734;2023-05-07T06:23:45;96034.78;;;14.88;68.95
76998;BME280;65930;48.874;10.734;2023-05-07T06:26:13;96034.91;;;15.01;69.71
76998;BME280;65930;48.874;10.734;2023-05-07T06:28:41;96041.31;;;15.17;69.11
76998;BME280;65930;48.874;10.734;2023-05-07T06:31:16;96031.31;;;15.20;68.90
76998;BME280;65930;48.874;10.734;2023-05-07T06:33:44;96035.94;;;15.26;68.73
76998;BME280;65930;48.874;10.734;2023-05-07T06:36:12;96027.47;;;15.50;67.72
76998;BME280;65930;48.874;10.734;2023-05-07T06:38:43;96043.69;;;15.74;65.94
76998;BME280;65930;48.874;10.734;2023-05-07T06:41:11;96028.97;;;15.90;66.30
76998;BME280;65930;48.874;10.734;2023-05-07T06:43:38;96046.69;;;16.16;64.67
76998;BME280;65930;48.874;10.734;2023-05-07T06:46:07;96034.81;;;16.28;63.49
76998;BME280;65930;48.874;10.734;2023-05-07T06:48:36;96041.41;;;16.66;64.48
76998;BME280;65930;48.874;10.734;2023-05-07T06:51:04;96042.66;;;16.65;62.97
76998;BME280;65930;48.874;10.734;2023-05-07T06:53:32;96040.03;;;16.87;62.41
76998;BME280;65930;48.874;10.734;2023-05-07T06:56:00;96041.03;;;17.22;62.71
76998;BME280;65930;48.874;10.734;2023-05-07T06:58:30;96035.56;;;17.31;61.33
76998;BME280;65930;48.874;10.734;2023-05-07T07:00:57;96046.31;;;17.20;62.16
76998;BME280;65930;48.874;10.734;2023-05-07T07:03:25;96038.22;;;17.22;60.68
76998;BME280;65930;48.874;10.734;2023-05-07T07:05:55;96044.72;;;17.19;62.36
76998;BME280;65930;48.874;10.734;2023-05-07T07:08:22;96052.06;;;17.54;62.16
76998;BME280;65930;48.874;10.734;2023-05-07T07:10:50;96055.72;;;17.80;61.68
76998;BME280;65930;48.874;10.734;2023-05-07T07:13:18;96045.66;;;17.95;60.43
76998;BME280;65930;48.874;10.734;2023-05-07T07:15:48;96046.09;;;18.19;59.18
76998;BME280;65930;48.874;10.734;2023-05-07T07:18:16;96052.84;;;18.43;58.05
76998;BME280;65930;48.874;10.734;2023-05-07T07:20:44;96053.75;;;18.53;57.69
76998;BME280;65930;48.874;10.734;2023-05-07T07:23:13;96055.00;;;18.52;57.71
76998;BME280;65930;48.874;10.734;2023-05-07T07:25:44;96055.28;;;18.67;58.89
76998;BME280;65930;48.874;10.734;2023-05-07T07:28:12;96059.50;;;18.37;58.10
76998;BME280;65930;48.874;10.734;2023-05-07T07:30:40;96061.09;;;18.38;58.86
76998;BME280;65930;48.874;10.734;2023-05-07T07:33:08;96054.78;;;18.46;58.10
76998;BME280;65930;48.874;10.734;2023-05-07T07:35:36;96053.97;;;18.59;58.42
76998;BME280;65930;48.874;10.734;2023-05-07T07:38:04;96060.16;;;18.54;58.88
76998;BME280;65930;48.874;10.734;2023-05-07T07:40:34;96055.59;;;18.81;59.68
76998;BME280;65930;48.874;10.734;2023-05-07T07:43:02;96063.31;;;18.90;58.21
76998;BME280;65930;48.874;10.734;2023-05-07T07:45:30;96052.34;;;19.05;56.98
76998;BME280;65930;48.874;10.734;2023-05-07T07:47:58;96048.09;;;18.78;56.86
76998;BME280;65930;48.874;10.734;2023-05-07T07:50:26;96050.38;;;18.71;58.33
76998;BME280;65930;48.874;10.734;2023-05-07T07:53:10;96057.50;;;18.84;55.29
76998;BME280;65930;48.874;10.734;2023-05-07T07:55:39;96058.03;;;19.14;56.79
76998;BME280;65930;48.874;10.734;2023-05-07T07:58:07;96059.00;;;19.42;54.42
76998;BME280;65930;48.874;10.734;2023-05-07T08:00:35;96059.16;;;19.60;54.97
76998;BME280;65930;48.874;10.734;2023-05-07T08:03:03;96063.81;;;19.85;53.56
76998;BME280;65930;48.874;10.734;2023-05-07T08:05:33;96057.91;;;20.22;51.74
76998;BME280;65930;48.874;10.734;2023-05-07T08:08:01;96058.50;;;20.17;52.97
76998;BME280;65930;48.874;10.734;2023-05-07T08:10:29;96066.19;;;19.64;52.11
76998;BME280;65930;48.874;10.734;2023-05-07T08:13:04;96062.84;;;19.78;53.23
76998;BME280;65930;48.874;10.734;2023-05-07T08:15:33;96057.50;;;20.02;53.57
76998;BME280;65930;48.874;10.734;2023-05-07T08:18:02;96058.97;;;20.25;54.07
76998;BME280;65930;48.874;10.734;2023-05-07T08:20:30;96053.44;;;20.03;52.78
76998;BME280;65930;48.874;10.734;2023-05-07T08:22:58;96060.69;;;20.22;52.47
76998;BME280;65930;48.874;10.734;2023-05-07T08:25:25;96061.38;;;19.96;51.29
76998;BME280;65930;48.874;10.734;2023-05-07T08:27:53;96059.16;;;19.60;51.96
76998;BME280;65930;48.874;10.734;2023-05-07T08:30:23;96065.69;;;19.57;52.85
76998;BME280;65930;48.874;10.734;2023-05-07T08:32:50;96062.00;;;19.91;53.08
76998;BME280;65930;48.874;10.734;2023-05-07T08:35:18;96061.44;;;20.05;51.90
76998;BME280;65930;48.874;10.734;2023-05-07T08:37:46;96068.69;;;20.24;50.31
76998;BME280;65930;48.874;10.734;2023-05-07T08:40:14;96069.09;;;20.53;52.41
76998;BME280;65930;48.874;10.734;2023-05-07T08:42:44;96070.25;;;20.83;50.51
76998;BME280;65930;48.874;10.734;2023-05-07T08:45:13;96070.41;;;20.80;52.11
76998;BME280;65930;48.874;10.734;2023-05-07T08:47:46;96057.56;;;20.79;51.27
76998;BME280;65930;48.874;10.734;2023-05-07T08:50:15;96066.84;;;21.16;50.26
76998;BME280;65930;48.874;10.734;2023-05-07T08:52:43;96070.59;;;21.49;50.03
76998;BME280;65930;48.874;10.734;2023-05-07T08:55:12;96065.72;;;21.59;49.84
76998;BME280;65930;48.874;10.734;2023-05-07T08:57:41;96065.41;;;20.93;51.56
76998;BME280;65930;48.874;10.734;2023-05-07T09:00:10;96072.63;;;21.12;50.04
76998;BME280;65930;48.874;10.734;2023-05-07T09:32:21;96076.84;;;21.44;49.83
76998;BME280;65930;48.874;10.734;2023-05-07T09:34:49;96072.28;;;21.74;48.80
76998;BME280;65930;48.874;10.734;2023-05-07T09:37:17;96073.66;;;21.87;47.99
76998;BME280;65930;48.874;10.734;2023-05-07T09:39:46;96067.38;;;22.02;48.33
76998;BME280;65930;48.874;10.734;2023-05-07T09:42:14;96063.16;;;21.97;48.03
76998;BME280;65930;48.874;10.734;2023-05-07T09:44:43;96048.78;;;22.19;46.66
76998;BME280;65930;48.874;10.734;2023-05-07T09:47:19;96056.81;;;22.68;46.46
76998;BME280;65930;48.874;10.734;2023-05-07T09:49:50;96059.53;;;21.97;47.56
76998;BME280;65930;48.874;10.734;2023-05-07T09:52:19;96060.94;;;22.01;46.31
76998;BME280;65930;48.874;10.734;2023-05-07T09:54:48;96061.94;;;22.22;45.13
76998;BME280;65930;48.874;10.734;2023-05-07T09:57:19;96050.56;;;21.29;46.23
76998;BME280;65930;48.874;10.734;2023-05-07T09:59:49;96063.06;;;20.82;47.16
76998;BME280;65930;48.874;10.734;2023-05-07T10:02:20;96051.47;;;20.71;46.36
76998;BME280;65930;48.874;10.734;2023-05-07T10:04:51;96054.75;;;20.79;46.58
76998;BME280;65930;48.874;10.734;2023-05-07T10:07:21;96062.13;;;20.85;48.59
76998;BME280;65930;48.874;10.734;2023-05-07T10:09:50;96057.66;;;20.39;49.22
76998;BME280;65930;48.874;10.734;2023-05-07T10:12:20;96058.28;;;20.34;47.68
76998;BME280;65930;48.874;10.734;2023-05-07T10:14:50;96062.72;;;20.22;49.01
76998;BME280;65930;48.874;10.734;2023-05-07T10:17:20;96063.56;;;21.17;48.34
76998;BME280;65930;48.874;10.734;2023-05-07T10:19:53;96059.28;;;21.67;48.13
76998;BME280;65930;48.874;10.734;2023-05-07T10:22:24;96062.44;;;22.20;47.73
76998;BME280;65930;48.874;10.734;2023-05-07T10:24:59;96043.75;;;22.23;45.13
76998;BME280;65930;48.874;10.734;2023-05-07T10:27:31;96055.63;;;22.60;43.94
76998;BME280;65930;48.874;10.734;2023-05-07T10:30:10;96052.25;;;22.79;45.26
76998;BME280;65930;48.874;10.734;2023-05-07T10:32:43;96058.56;;;22.74;45.12
76998;BME280;65930;48.874;10.734;2023-05-07T10:35:19;96045.72;;;23.12;44.49
76998;BME280;65930;48.874;10.734;2023-05-07T10:37:48;96049.88;;;23.02;43.58
76998;BME280;65930;48.874;10.734;2023-05-07T10:40:17;96060.47;;;22.92;44.83
76998;BME280;65930;48.874;10.734;2023-05-07T10:42:54;96056.97;;;23.36;42.54
76998;BME280;65930;48.874;10.734;2023-05-07T10:45:23;96056.59;;;23.43;42.33
76998;BME280;65930;48.874;10.734;2023-05-07T10:48:13;96055.59;;;22.93;42.32
76998;BME280;65930;48.874;10.734;2023-05-07T10:51:21;96059.09;;;23.79;42.18
76998;BME280;65930;48.874;10.734;2023-05-07T10:54:20;96041.31;;;24.08;43.13
76998;BME280;65930;48.874;10.734;2023-05-07T10:56:49;96053.63;;;23.90;41.70
76998;BME280;65930;48.874;10.734;2023-05-07T10:59:37;96042.19;;;24.14;42.85
76998;BME280;65930;48.874;10.734;2023-05-07T11:03:05;96041.75;;;24.50;41.26
76998;BME280;65930;48.874;10.734;2023-05-07T11:05:35;96037.63;;;24.51;40.65
76998;BME280;65930;48.874;10.734;2023-05-07T11:08:06;96033.53;;;24.52;41.39
76998;BME280;65930;48.874;10.734;2023-05-07T11:10:54;96041.31;;;24.08;38.82
76998;BME280;65930;48.874;10.734;2023-05-07T11:13:43;96042.88;;;24.09;40.16
76998;BME280;65930;48.874;10.734;2023-05-07T11:16:18;96049.13;;;23.54;41.62
76998;BME280;65930;48.874;10.734;2023-05-07T11:18:48;96044.66;;;23.24;40.32
76998;BME280;65930;48.874;10.734;2023-05-07T11:21:32;96048.44;;;24.03;40.57
76998;BME280;65930;48.874;10.734;2023-05-07T11:24:04;96035.38;;;24.06;39.48
76998;BME280;65930;48.874;10.734;2023-05-07T11:26:45;96044.44;;;23.66;41.23
76998;BME280;65930;48.874;10.734;2023-05-07T11:29:16;96039.28;;;23.94;38.49
76998;BME280;65930;48.874;10.734;2023-05-07T11:31:51;96040.91;;;24.44;39.69
76998;BME280;65930;48.874;10.734;2023-05-07T11:34:24;96040.34;;;24.11;39.17
76998;BME280;65930;48.874;10.734;2023-05-07T11:36:52;96048.09;;;24.45;40.90
76998;BME280;65930;48.874;10.734;2023-05-07T11:39:26;96039.53;;;24.40;38.52
76998;BME280;65930;48.874;10.734;2023-05-07T11:41:55;96046.84;;;25.02;39.26
76998;BME280;65930;48.874;10.734;2023-05-07T11:44:42;96016.13;;;25.20;38.48
76998;BME280;65930;48.874;10.734;2023-05-07T11:47:11;96030.19;;;24.89;36.92
76998;BME280;65930;48.874;10.734;2023-05-07T11:49:46;96030.59;;;25.22;38.51
76998;BME280;65930;48.874;10.734;2023-05-07T11:52:14;96030.06;;;25.18;37.85
76998;BME280;65930;48.874;10.734;2023-05-07T11:55:04;96022.78;;;24.56;38.08
76998;BME280;65930;48.874;10.734;2023-05-07T11:57:33;96030.75;;;25.13;40.39
76998;BME280;65930;48.874;10.734;2023-05-07T12:00:02;96023.06;;;24.24;38.31
76998;BME280;65930;48.874;10.734;2023-05-07T12:02:32;96030.19;;;24.34;40.47
76998;BME280;65930;48.874;10.734;2023-05-07T12:05:01;96026.19;;;24.61;38.49
76998;BME280;65930;48.874;10.734;2023-05-07T12:07:30;96026.31;;;24.17;40.31
76998;BME280;65930;48.874;10.734;2023-05-07T12:10:05;96022.38;;;24.84;37.17
76998;BME280;65930;48.874;10.734;2023-05-07T12:12:38;96021.00;;;24.94;39.45
76998;BME280;65930;48.874;10.734;2023-05-07T12:15:07;96012.88;;;25.27;36.77
76998;BME280;65930;48.874;10.734;2023-05-07T12:17:36;96008.34;;;24.75;36.58
76998;BME280;65930;48.874;10.734;2023-05-07T12:20:06;96023.59;;;23.63;40.15
76998;BME280;65930;48.874;10.734;2023-05-07T12:22:35;96018.88;;;24.19;39.92
76998;BME280;65930;48.874;10.734;2023-05-07T12:25:05;96017.97;;;24.83;39.87
76998;BME280;65930;48.874;10.734;2023-05-07T12:27:37;96015.91;;;24.83;39.56
76998;BME280;65930;48.874;10.734;2023-05-07T12:30:06;96015.75;;;24.87;36.96
76998;BME280;65930;48.874;10.734;2023-05-07T12:32:36;96003.06;;;25.03;38.71
76998;BME280;65930;48.874;10.734;2023-05-07T12:35:08;96020.78;;;24.42;38.05
76998;BME280;65930;48.874;10.734;2023-05-07T12:37:36;95998.41;;;23.95;38.35
76998;BME280;65930;48.874;10.734;2023-05-07T12:40:19;95996.44;;;24.01;38.83
76998;BME280;65930;48.874;10.734;2023-05-07T13:29:59;95978.63;;;23.36;40.17
76998;BME280;65930;48.874;10.734;2023-05-07T13:36:17;95972.66;;;23.05;40.69
76998;BME280;65930;48.874;10.734;2023-05-07T13:39:07;95982.63;;;22.91;41.62
76998;BME280;65930;48.874;10.734;2023-05-07T13:41:52;95977.28;;;22.69;41.77
76998;BME280;65930;48.874;10.734;2023-05-07T13:44:57;95969.28;;;22.53;43.07
76998;BME280;65930;48.874;10.734;2023-05-07T13:47:39;95969.28;;;22.53;41.72
76998;BME280;65930;48.874;10.734;2023-05-07T13:50:38;95971.00;;;22.74;43.62
76998;BME280;65930;48.874;10.734;2023-05-07T13:53:20;95979.41;;;22.83;43.01
76998;BME280;65930;48.874;10.734;2023-05-07T13:56:50;95965.44;;;23.04;41.35
76998;BME280;65930;48.874;10.734;2023-05-07T14:00:17;95961.50;;;22.87;40.96
76998;BME280;65930;48.874;10.734;2023-05-07T14:03:16;95971.06;;;22.89;40.68
76998;BME280;65930;48.874;10.734;2023-05-07T14:06:08;95967.25;;;22.68;41.97
76998;BME280;65930;48.874;10.734;2023-05-07T14:09:18;95968.38;;;22.47;43.70
76998;BME280;65930;48.874;10.734;2023-05-07T14:12:16;95971.91;;;22.80;42.43
76998;BME280;65930;48.874;10.734;2023-05-07T14:15:23;95969.75;;;22.75;42.53
76998;BME280;65930;48.874;10.734;2023-05-07T14:18:16;95976.03;;;22.94;41.37
76998;BME280;65930;48.874;10.734;2023-05-07T14:21:13;95970.34;;;22.79;41.06
76998;BME280;65930;48.874;10.734;2023-05-07T14:23:57;95978.66;;;22.98;42.13
76998;BME280;65930;48.874;10.734;2023-05-07T14:26:52;95957.06;;;23.09;41.25
76998;BME280;65930;48.874;10.734;2023-05-07T14:29:45;95979.38;;;23.22;43.61
76998;BME280;65930;48.874;10.734;2023-05-07T14:36:30;95978.44;;;22.87;42.59
76998;BME280;65930;48.874;10.734;2023-05-07T14:50:21;95967.28;;;22.21;41.92